sensor_id;sensor_type;location;lat;lon;timestamp;P1;durP1;ratioP1;P2;durP2;ratioP2
26756;SDS011;23848;49.798;10.228;2023-09-18T00:00:51;4.45;;;3.30;;
26756;SDS011;23848;49.798;10.228;2023-09-18T00:03:20;4.55;;;3.10;;
26756;SDS011;23848;49.798;10.228;2023-09-18T00:05:51;4.70;;;3.25;;
26756;SDS011;23848;49.798;10.228;2023-09-18T00:08:21;4.40;;;3.33;;
26756;SDS011;23848;49.798;10.228;2023-09-18T00:10:51;4.35;;;2.70;;
26756;SDS011;23848;49.798;10.228;2023-09-18T00:13:20;4.25;;;2.95;;
26756;SDS011;23848;49.798;10.228;2023-09-18T00:15:53;5.13;;;3.28;;
26756;SDS011;23848;49.798;10.228;2023-09-18T00:18:22;4.35;;;3.17;;
26756;SDS011;23848;49.798;10.228;2023-09-18T00:20:51;5.57;;;3.45;;
26756;SDS011;23848;49.798;10.228;2023-09-18T00:23:19;3.83;;;2.97;;
26756;SDS011;23848;49.798;10.228;2023-09-18T00:25:49;4.75;;;3.35;;
26756;SDS011;23848;49.798;10.228;2023-09-18T00:28:17;4.68;;;3.05;;
26756;SDS011;23848;49.798;10.228;2023-09-18T00:30:47;4.55;;;2.58;;
26756;SDS011;23848;49.798;10.228;2023-09-18T00:33:16;4.30;;;3.40;;
26756;SDS011;23848;49.798;10.228;2023-09-18T00:35:46;5.28;;;3.17;;
26756;SDS011;23848;49.798;10.228;2023-09-18T00:38:14;4.03;;;2.65;;
26756;SDS011;23848;49.798;10.228;2023-09-18T00:40:42;4.47;;;2.97;;
26756;SDS011;23848;49.798;10.228;2023-09-18T00:43:12;5.35;;;3.28;;
26756;SDS011;23848;49.798;10.228;2023-09-18T00:45:41;4.15;;;3.05;;
26756;SDS011;23848;49.798;10.228;2023-09-18T00:48:10;5.65;;;3.10;;
26756;SDS011;23848;49.798;10.228;2023-09-18T00:50:39;4.95;;;3.30;;
26756;SDS011;23848;49.798;10.228;2023-09-18T00:53:07;4.63;;;2.72;;
26756;SDS011;23848;49.798;10.228;2023-09-18T00:55:36;4.93;;;3.00;;
26756;SDS011;23848;49.798;10.228;2023-09-18T00:58:06;4.65;;;3.35;;
26756;SDS011;23848;49.798;10.228;2023-09-18T01:00:36;4.18;;;3.08;;
26756;SDS011;23848;49.798;10.228;2023-09-18T01:03:05;4.30;;;2.70;;
26756;SDS011;23848;49.798;10.228;2023-09-18T01:05:33;4.63;;;2.85;;
26756;SDS011;23848;49.798;10.228;2023-09-18T01:08:03;3.70;;;2.95;;
26756;SDS011;23848;49.798;10.228;2023-09-18T01:10:32;5.07;;;3.80;;
26756;SDS011;23848;49.798;10.228;2023-09-18T01:13:04;4.65;;;3.35;;
26756;SDS011;23848;49.798;10.228;2023-09-18T01:15:42;4.63;;;3.28;;
26756;SDS011;23848;49.798;10.228;2023-09-18T01:18:11;4.60;;;3.28;;
26756;SDS011;23848;49.798;10.228;2023-09-18T01:20:40;4.97;;;3.40;;
26756;SDS011;23848;49.798;10.228;2023-09-18T01:23:10;4.50;;;2.90;;
26756;SDS011;23848;49.798;10.228;2023-09-18T01:25:38;5.20;;;3.30;;
26756;SDS011;23848;49.798;10.228;2023-09-18T01:28:06;4.68;;;3.22;;
26756;SDS011;23848;49.798;10.228;2023-09-18T01:30:35;5.18;;;3.20;;
26756;SDS011;23848;49.798;10.228;2023-09-18T01:33:04;4.88;;;3.30;;
26756;SDS011;23848;49.798;10.228;2023-09-18T01:35:33;4.95;;;3.42;;
26756;SDS011;23848;49.798;10.228;2023-09-18T01:38:01;4.65;;;3.10;;
26756;SDS011;23848;49.798;10.228;2023-09-18T01:40:32;4.88;;;3.17;;
26756;SDS011;23848;49.798;10.228;2023-09-18T01:43:01;5.18;;;3.60;;
26756;SDS011;23848;49.798;10.228;2023-09-18T01:45:29;6.07;;;3.63;;
26756;SDS011;23848;49.798;10.228;2023-09-18T01:47:58;4.28;;;2.67;;
26756;SDS011;23848;49.798;10.228;2023-09-18T01:50:27;4.35;;;3.08;;
26756;SDS011;23848;49.798;10.228;2023-09-18T01:52:55;4.38;;;2.72;;
26756;SDS011;23848;49.798;10.228;2023-09-18T01:55:24;5.38;;;3.28;;
26756;SDS011;23848;49.798;10.228;2023-09-18T01:57:53;4.13;;;2.85;;
26756;SDS011;23848;49.798;10.228;2023-09-18T02:00:22;4.57;;;3.22;;
26756;SDS011;23848;49.798;10.228;2023-09-18T02:02:50;5.05;;;3.40;;
26756;SDS011;23848;49.798;10.228;2023-09-18T02:05:39;4.32;;;3.25;;
26756;SDS011;23848;49.798;10.228;2023-09-18T02:08:08;4.18;;;3.20;;
26756;SDS011;23848;49.798;10.228;2023-09-18T02:10:37;5.25;;;3.53;;
26756;SDS011;23848;49.798;10.228;2023-09-18T02:13:06;4.95;;;3.47;;
26756;SDS011;23848;49.798;10.228;2023-09-18T02:15:37;5.45;;;3.30;;
26756;SDS011;23848;49.798;10.228;2023-09-18T02:18:05;5.05;;;3.40;;
26756;SDS011;23848;49.798;10.228;2023-09-18T02:20:39;4.40;;;3.28;;
26756;SDS011;23848;49.798;10.228;2023-09-18T02:23:07;4.65;;;3.13;;
26756;SDS011;23848;49.798;10.228;2023-09-18T02:25:36;4.18;;;2.83;;
26756;SDS011;23848;49.798;10.228;2023-09-18T02:28:07;4.57;;;3.15;;
26756;SDS011;23848;49.798;10.228;2023-09-18T02:30:36;4.40;;;3.30;;
26756;SDS011;23848;49.798;10.228;2023-09-18T02:33:04;4.53;;;3.65;;
26756;SDS011;23848;49.798;10.228;2023-09-18T02:35:33;5.18;;;3.45;;
26756;SDS011;23848;49.798;10.228;2023-09-18T02:38:01;4.32;;;3.03;;
26756;SDS011;23848;49.798;10.228;2023-09-18T02:40:30;4.07;;;3.13;;
26756;SDS011;23848;49.798;10.228;2023-09-18T02:42:58;5.00;;;3.50;;
26756;SDS011;23848;49.798;10.228;2023-09-18T02:45:29;5.03;;;3.53;;
26756;SDS011;23848;49.798;10.228;2023-09-18T02:47:57;4.90;;;3.15;;
26756;SDS011;23848;49.798;10.228;2023-09-18T02:50:26;5.22;;;3.35;;
26756;SDS011;23848;49.798;10.228;2023-09-18T02:52:54;4.45;;;3.42;;
26756;SDS011;23848;49.798;10.228;2023-09-18T02:55:23;5.07;;;3.25;;
26756;SDS011;23848;49.798;10.228;2023-09-18T02:57:51;5.10;;;3.58;;
26756;SDS011;23848;49.798;10.228;2023-09-18T03:00:19;4.57;;;3.03;;
26756;SDS011;23848;49.798;10.228;2023-09-18T03:03:07;5.07;;;3.45;;
26756;SDS011;23848;49.798;10.228;2023-09-18T03:05:36;5.30;;;3.33;;
26756;SDS011;23848;49.798;10.228;2023-09-18T03:08:05;5.93;;;3.63;;
26756;SDS011;23848;49.798;10.228;2023-09-18T03:10:33;4.55;;;3.10;;
26756;SDS011;23848;49.798;10.228;2023-09-18T03:13:02;4.03;;;3.05;;
26756;SDS011;23848;49.798;10.228;2023-09-18T03:15:31;5.22;;;3.22;;
26756;SDS011;23848;49.798;10.228;2023-09-18T03:17:59;4.28;;;3.03;;
26756;SDS011;23848;49.798;10.228;2023-09-18T03:20:30;6.00;;;3.75;;
26756;SDS011;23848;49.798;10.228;2023-09-18T03:22:59;6.35;;;3.83;;
26756;SDS011;23848;49.798;10.228;2023-09-18T03:25:28;5.28;;;3.42;;
26756;SDS011;23848;49.798;10.228;2023-09-18T03:28:16;5.25;;;3.65;;
26756;SDS011;23848;49.798;10.228;2023-09-18T03:30:44;6.05;;;3.75;;
26756;SDS011;23848;49.798;10.228;2023-09-18T03:33:13;4.35;;;3.13;;
26756;SDS011;23848;49.798;10.228;2023-09-18T03:35:49;5.38;;;3.70;;
26756;SDS011;23848;49.798;10.228;2023-09-18T03:38:19;4.70;;;3.50;;
26756;SDS011;23848;49.798;10.228;2023-09-18T03:40:48;6.05;;;4.10;;
26756;SDS011;23848;49.798;10.228;2023-09-18T03:43:16;4.88;;;3.58;;
26756;SDS011;23848;49.798;10.228;2023-09-18T03:45:45;5.60;;;3.45;;
26756;SDS011;23848;49.798;10.228;2023-09-18T03:48:14;5.93;;;4.03;;
26756;SDS011;23848;49.798;10.228;2023-09-18T03:50:42;6.00;;;3.95;;
26756;SDS011;23848;49.798;10.228;2023-09-18T03:53:12;4.88;;;3.75;;
26756;SDS011;23848;49.798;10.228;2023-09-18T03:55:41;5.32;;;4.00;;
26756;SDS011;23848;49.798;10.228;2023-09-18T03:58:09;6.45;;;3.88;;
26756;SDS011;23848;49.798;10.228;2023-09-18T04:00:37;5.63;;;4.10;;
26756;SDS011;23848;49.798;10.228;2023-09-18T04:03:05;5.47;;;3.70;;
26756;SDS011;23848;49.798;10.228;2023-09-18T04:05:36;5.22;;;3.65;;
26756;SDS011;23848;49.798;10.228;2023-09-18T04:08:05;5.45;;;3.95;;
26756;SDS011;23848;49.798;10.228;2023-09-18T04:10:34;6.35;;;3.80;;
26756;SDS011;23848;49.798;10.228;2023-09-18T04:13:03;5.05;;;3.58;;
26756;SDS011;23848;49.798;10.228;2023-09-18T04:15:31;6.10;;;4.30;;
26756;SDS011;23848;49.798;10.228;2023-09-18T04:17:59;6.45;;;4.20;;
26756;SDS011;23848;49.798;10.228;2023-09-18T04:20:28;5.32;;;4.03;;
26756;SDS011;23848;49.798;10.228;2023-09-18T04:25:44;5.40;;;3.67;;
26756;SDS011;23848;49.798;10.228;2023-09-18T04:28:13;5.13;;;3.92;;
26756;SDS011;23848;49.798;10.228;2023-09-18T04:30:41;7.18;;;4.85;;
26756;SDS011;23848;49.798;10.228;2023-09-18T04:33:09;5.47;;;3.67;;
26756;SDS011;23848;49.798;10.228;2023-09-18T04:35:38;5.50;;;3.75;;
26756;SDS011;23848;49.798;10.228;2023-09-18T04:38:07;5.55;;;4.05;;
26756;SDS011;23848;49.798;10.228;2023-09-18T04:40:37;6.68;;;3.63;;
26756;SDS011;23848;49.798;10.228;2023-09-18T04:43:08;5.47;;;4.28;;
26756;SDS011;23848;49.798;10.228;2023-09-18T04:45:37;5.88;;;4.10;;
26756;SDS011;23848;49.798;10.228;2023-09-18T04:48:05;6.18;;;4.18;;
26756;SDS011;23848;49.798;10.228;2023-09-18T04:50:34;5.15;;;3.92;;
26756;SDS011;23848;49.798;10.228;2023-09-18T04:53:03;6.03;;;4.00;;
26756;SDS011;23848;49.798;10.228;2023-09-18T04:55:31;6.30;;;3.63;;
26756;SDS011;23848;49.798;10.228;2023-09-18T04:58:00;6.25;;;4.15;;
26756;SDS011;23848;49.798;10.228;2023-09-18T05:00:31;5.28;;;3.60;;
26756;SDS011;23848;49.798;10.228;2023-09-18T05:03:00;5.70;;;4.10;;
26756;SDS011;23848;49.798;10.228;2023-09-18T05:05:30;6.50;;;4.25;;
26756;SDS011;23848;49.798;10.228;2023-09-18T05:07:58;5.75;;;4.25;;
26756;SDS011;23848;49.798;10.228;2023-09-18T05:10:26;6.15;;;4.50;;
26756;SDS011;23848;49.798;10.228;2023-09-18T05:12:55;5.72;;;4.28;;
26756;SDS011;23848;49.798;10.228;2023-09-18T05:15:26;5.75;;;4.07;;
26756;SDS011;23848;49.798;10.228;2023-09-18T05:17:58;6.72;;;3.92;;
26756;SDS011;23848;49.798;10.228;2023-09-18T05:20:27;6.65;;;4.13;;
26756;SDS011;23848;49.798;10.228;2023-09-18T05:22:56;6.20;;;4.13;;
26756;SDS011;23848;49.798;10.228;2023-09-18T05:25:25;5.50;;;4.32;;
26756;SDS011;23848;49.798;10.228;2023-09-18T05:27:54;6.55;;;4.53;;
26756;SDS011;23848;49.798;10.228;2023-09-18T05:30:24;6.00;;;4.32;;
26756;SDS011;23848;49.798;10.228;2023-09-18T05:32:54;8.55;;;4.40;;
26756;SDS011;23848;49.798;10.228;2023-09-18T05:35:24;6.45;;;4.00;;
26756;SDS011;23848;49.798;10.228;2023-09-18T05:37:52;6.55;;;4.20;;
26756;SDS011;23848;49.798;10.228;2023-09-18T05:40:23;5.93;;;4.05;;
26756;SDS011;23848;49.798;10.228;2023-09-18T05:42:53;7.82;;;4.60;;
26756;SDS011;23848;49.798;10.228;2023-09-18T05:45:21;5.68;;;4.13;;
26756;SDS011;23848;49.798;10.228;2023-09-18T05:47:50;6.50;;;4.18;;
26756;SDS011;23848;49.798;10.228;2023-09-18T05:50:19;6.68;;;4.13;;
26756;SDS011;23848;49.798;10.228;2023-09-18T05:52:49;7.03;;;3.90;;
26756;SDS011;23848;49.798;10.228;2023-09-18T05:55:18;6.40;;;4.40;;
26756;SDS011;23848;49.798;10.228;2023-09-18T05:57:46;6.10;;;4.40;;
26756;SDS011;23848;49.798;10.228;2023-09-18T06:00:14;6.78;;;4.95;;
26756;SDS011;23848;49.798;10.228;2023-09-18T06:02:44;5.35;;;3.90;;
26756;SDS011;23848;49.798;10.228;2023-09-18T06:05:13;6.53;;;4.95;;
26756;SDS011;23848;49.798;10.228;2023-09-18T06:07:43;6.93;;;4.55;;
26756;SDS011;23848;49.798;10.228;2023-09-18T06:10:14;7.47;;;4.72;;
26756;SDS011;23848;49.798;10.228;2023-09-18T06:12:44;6.28;;;4.45;;
26756;SDS011;23848;49.798;10.228;2023-09-18T06:15:12;6.80;;;4.80;;
26756;SDS011;23848;49.798;10.228;2023-09-18T06:17:42;6.18;;;4.15;;
26756;SDS011;23848;49.798;10.228;2023-09-18T06:20:11;6.45;;;4.57;;
26756;SDS011;23848;49.798;10.228;2023-09-18T06:22:40;5.60;;;4.53;;
26756;SDS011;23848;49.798;10.228;2023-09-18T06:25:08;6.32;;;4.47;;
26756;SDS011;23848;49.798;10.228;2023-09-18T06:27:38;5.85;;;4.47;;
26756;SDS011;23848;49.798;10.228;2023-09-18T06:30:07;7.20;;;4.43;;
26756;SDS011;23848;49.798;10.228;2023-09-18T06:32:35;6.18;;;4.25;;
26756;SDS011;23848;49.798;10.228;2023-09-18T06:35:04;6.53;;;4.30;;
26756;SDS011;23848;49.798;10.228;2023-09-18T06:37:33;5.60;;;3.95;;
26756;SDS011;23848;49.798;10.228;2023-09-18T06:40:01;6.60;;;4.45;;
26756;SDS011;23848;49.798;10.228;2023-09-18T06:42:32;5.70;;;4.30;;
26756;SDS011;23848;49.798;10.228;2023-09-18T06:45:02;5.95;;;4.20;;
26756;SDS011;23848;49.798;10.228;2023-09-18T06:47:33;5.85;;;4.13;;
26756;SDS011;23848;49.798;10.228;2023-09-18T06:50:01;5.40;;;4.20;;
26756;SDS011;23848;49.798;10.228;2023-09-18T06:52:31;6.00;;;4.05;;
26756;SDS011;23848;49.798;10.228;2023-09-18T06:54:59;6.18;;;4.45;;
26756;SDS011;23848;49.798;10.228;2023-09-18T06:57:28;5.57;;;4.03;;
26756;SDS011;23848;49.798;10.228;2023-09-18T06:59:56;4.88;;;3.78;;
26756;SDS011;23848;49.798;10.228;2023-09-18T07:02:26;6.57;;;4.30;;
26756;SDS011;23848;49.798;10.228;2023-09-18T07:04:54;6.00;;;3.95;;
26756;SDS011;23848;49.798;10.228;2023-09-18T07:07:23;6.53;;;4.57;;
26756;SDS011;23848;49.798;10.228;2023-09-18T07:09:52;5.40;;;3.88;;
26756;SDS011;23848;49.798;10.228;2023-09-18T07:12:23;5.63;;;4.10;;
26756;SDS011;23848;49.798;10.228;2023-09-18T07:14:52;6.55;;;4.50;;
26756;SDS011;23848;49.798;10.228;2023-09-18T07:17:20;7.38;;;4.30;;
26756;SDS011;23848;49.798;10.228;2023-09-18T07:19:50;6.53;;;4.28;;
26756;SDS011;23848;49.798;10.228;2023-09-18T07:22:18;8.80;;;4.82;;
26756;SDS011;23848;49.798;10.228;2023-09-18T07:24:46;5.85;;;4.28;;
26756;SDS011;23848;49.798;10.228;2023-09-18T07:27:14;5.05;;;3.38;;
26756;SDS011;23848;49.798;10.228;2023-09-18T07:29:43;5.53;;;4.03;;
26756;SDS011;23848;49.798;10.228;2023-09-18T07:32:12;6.50;;;4.57;;
26756;SDS011;23848;49.798;10.228;2023-09-18T07:34:56;4.78;;;3.92;;
26756;SDS011;23848;49.798;10.228;2023-09-18T07:37:26;5.97;;;3.67;;
26756;SDS011;23848;49.798;10.228;2023-09-18T07:39:54;5.78;;;4.00;;
26756;SDS011;23848;49.798;10.228;2023-09-18T07:42:23;6.57;;;4.22;;
26756;SDS011;23848;49.798;10.228;2023-09-18T07:44:52;7.35;;;4.55;;
26756;SDS011;23848;49.798;10.228;2023-09-18T07:47:24;6.10;;;4.20;;
26756;SDS011;23848;49.798;10.228;2023-09-18T07:49:52;6.75;;;4.18;;
26756;SDS011;23848;49.798;10.228;2023-09-18T07:52:22;7.07;;;4.57;;
26756;SDS011;23848;49.798;10.228;2023-09-18T07:54:51;5.60;;;3.92;;
26756;SDS011;23848;49.798;10.228;2023-09-18T07:57:19;6.47;;;4.53;;
26756;SDS011;23848;49.798;10.228;2023-09-18T07:59:49;6.25;;;4.32;;
26756;SDS011;23848;49.798;10.228;2023-09-18T08:02:17;8.15;;;4.88;;
26756;SDS011;23848;49.798;10.228;2023-09-18T08:04:48;5.63;;;4.20;;
26756;SDS011;23848;49.798;10.228;2023-09-18T08:07:16;6.88;;;4.60;;
26756;SDS011;23848;49.798;10.228;2023-09-18T08:09:46;6.65;;;4.22;;
26756;SDS011;23848;49.798;10.228;2023-09-18T08:12:15;6.63;;;4.25;;
26756;SDS011;23848;49.798;10.228;2023-09-18T08:14:43;5.93;;;4.18;;
26756;SDS011;23848;49.798;10.228;2023-09-18T08:17:13;9.15;;;4.80;;
26756;SDS011;23848;49.798;10.228;2023-09-18T08:19:41;5.13;;;3.90;;
26756;SDS011;23848;49.798;10.228;2023-09-18T08:22:10;6.25;;;4.00;;
26756;SDS011;23848;49.798;10.228;2023-09-18T08:24:41;6.10;;;3.90;;
26756;SDS011;23848;49.798;10.228;2023-09-18T08:27:14;6.00;;;4.13;;
26756;SDS011;23848;49.798;10.228;2023-09-18T08:29:43;6.35;;;3.80;;
26756;SDS011;23848;49.798;10.228;2023-09-18T08:32:12;5.32;;;3.40;;
26756;SDS011;23848;49.798;10.228;2023-09-18T08:34:40;5.97;;;3.70;;
26756;SDS011;23848;49.798;10.228;2023-09-18T08:37:09;6.63;;;3.60;;
26756;SDS011;23848;49.798;10.228;2023-09-18T08:39:37;5.38;;;3.42;;
26756;SDS011;23848;49.798;10.228;2023-09-18T08:42:07;7.70;;;3.40;;
26756;SDS011;23848;49.798;10.228;2023-09-18T08:44:37;6.30;;;3.25;;
26756;SDS011;23848;49.798;10.228;2023-09-18T08:47:07;3.95;;;3.13;;
26756;SDS011;23848;49.798;10.228;2023-09-18T08:49:36;7.13;;;3.10;;
26756;SDS011;23848;49.798;10.228;2023-09-18T08:52:05;4.53;;;3.30;;
26756;SDS011;23848;49.798;10.228;2023-09-18T08:54:34;5.93;;;3.30;;
26756;SDS011;23848;49.798;10.228;2023-09-18T08:57:03;5.07;;;2.85;;
26756;SDS011;23848;49.798;10.228;2023-09-18T08:59:34;5.75;;;2.70;;
26756;SDS011;23848;49.798;10.228;2023-09-18T09:02:04;5.07;;;3.20;;
26756;SDS011;23848;49.798;10.228;2023-09-18T09:04:32;3.85;;;2.40;;
26756;SDS011;23848;49.798;10.228;2023-09-18T09:07:01;5.00;;;2.33;;
26756;SDS011;23848;49.798;10.228;2023-09-18T09:09:30;3.92;;;2.15;;
26756;SDS011;23848;49.798;10.228;2023-09-18T09:11:58;5.78;;;2.38;;
26756;SDS011;23848;49.798;10.228;2023-09-18T09:14:27;4.63;;;2.30;;
26756;SDS011;23848;49.798;10.228;2023-09-18T09:16:56;3.22;;;1.80;;
26756;SDS011;23848;49.798;10.228;2023-09-18T09:19:29;4.47;;;1.77;;
26756;SDS011;23848;49.798;10.228;2023-09-18T09:21:58;4.43;;;1.58;;
26756;SDS011;23848;49.798;10.228;2023-09-18T09:24:38;3.22;;;1.50;;
26756;SDS011;23848;49.798;10.228;2023-09-18T09:27:06;4.35;;;1.65;;
26756;SDS011;23848;49.798;10.228;2023-09-18T09:29:34;3.65;;;1.40;;
26756;SDS011;23848;49.798;10.228;2023-09-18T09:32:13;4.57;;;1.52;;
26756;SDS011;23848;49.798;10.228;2023-09-18T09:34:43;2.60;;;1.30;;
26756;SDS011;23848;49.798;10.228;2023-09-18T09:37:12;6.85;;;1.60;;
26756;SDS011;23848;49.798;10.228;2023-09-18T09:39:47;3.03;;;1.70;;
26756;SDS011;23848;49.798;10.228;2023-09-18T09:42:16;3.78;;;1.20;;
26756;SDS011;23848;49.798;10.228;2023-09-18T09:45:00;3.00;;;1.30;;
26756;SDS011;23848;49.798;10.228;2023-09-18T09:47:31;2.42;;;1.40;;
26756;SDS011;23848;49.798;10.228;2023-09-18T09:50:06;3.65;;;1.45;;
26756;SDS011;23848;49.798;10.228;2023-09-18T09:52:36;3.33;;;1.00;;
26756;SDS011;23848;49.798;10.228;2023-09-18T09:55:19;2.83;;;1.13;;
26756;SDS011;23848;49.798;10.228;2023-09-18T09:57:48;4.32;;;1.50;;
26756;SDS011;23848;49.798;10.228;2023-09-18T10:00:17;2.20;;;1.20;;
26756;SDS011;23848;49.798;10.228;2023-09-18T10:02:56;2.83;;;1.10;;
26756;SDS011;23848;49.798;10.228;2023-09-18T10:05:28;3.03;;;1.60;;
26756;SDS011;23848;49.798;10.228;2023-09-18T10:07:57;1.92;;;0.95;;
26756;SDS011;23848;49.798;10.228;2023-09-18T10:10:30;1.98;;;0.88;;
26756;SDS011;23848;49.798;10.228;2023-09-18T10:13:00;2.00;;;1.08;;
26756;SDS011;23848;49.798;10.228;2023-09-18T10:15:31;3.30;;;1.15;;
26756;SDS011;23848;49.798;10.228;2023-09-18T10:18:05;2.17;;;0.90;;
26756;SDS011;23848;49.798;10.228;2023-09-18T10:20:39;2.67;;;0.80;;
26756;SDS011;23848;49.798;10.228;2023-09-18T10:23:12;1.67;;;0.88;;
26756;SDS011;23848;49.798;10.228;2023-09-18T10:25:50;1.10;;;0.70;;
26756;SDS011;23848;49.798;10.228;2023-09-18T10:28:23;2.95;;;1.23;;
26756;SDS011;23848;49.798;10.228;2023-09-18T10:30:55;1.88;;;0.88;;
26756;SDS011;23848;49.798;10.228;2023-09-18T10:33:25;2.85;;;1.08;;
26756;SDS011;23848;49.798;10.228;2023-09-18T10:35:56;1.52;;;0.80;;
26756;SDS011;23848;49.798;10.228;2023-09-18T10:38:27;2.53;;;1.17;;
26756;SDS011;23848;49.798;10.228;2023-09-18T10:40:56;1.98;;;0.98;;
26756;SDS011;23848;49.798;10.228;2023-09-18T10:43:26;1.60;;;0.70;;
26756;SDS011;23848;49.798;10.228;2023-09-18T10:45:54;2.78;;;0.88;;
26756;SDS011;23848;49.798;10.228;2023-09-18T10:48:23;4.35;;;0.80;;
26756;SDS011;23848;49.798;10.228;2023-09-18T10:50:52;4.15;;;1.23;;
26756;SDS011;23848;49.798;10.228;2023-09-18T10:53:22;4.63;;;1.50;;
26756;SDS011;23848;49.798;10.228;2023-09-18T10:55:53;4.67;;;0.80;;
26756;SDS011;23848;49.798;10.228;2023-09-18T10:58:23;1.70;;;0.75;;
26756;SDS011;23848;49.798;10.228;2023-09-18T11:00:53;3.00;;;1.13;;
26756;SDS011;23848;49.798;10.228;2023-09-18T11:03:24;1.48;;;0.63;;
26756;SDS011;23848;49.798;10.228;2023-09-18T11:06:02;1.63;;;0.77;;
26756;SDS011;23848;49.798;10.228;2023-09-18T11:08:33;1.77;;;0.70;;
26756;SDS011;23848;49.798;10.228;2023-09-18T11:11:03;2.45;;;1.08;;
26756;SDS011;23848;49.798;10.228;2023-09-18T11:13:33;1.50;;;0.80;;
26756;SDS011;23848;49.798;10.228;2023-09-18T11:16:02;1.90;;;0.90;;
26756;SDS011;23848;49.798;10.228;2023-09-18T11:18:41;4.03;;;1.65;;
26756;SDS011;23848;49.798;10.228;2023-09-18T11:21:09;6.90;;;2.50;;
26756;SDS011;23848;49.798;10.228;2023-09-18T11:23:39;4.22;;;1.52;;
26756;SDS011;23848;49.798;10.228;2023-09-18T11:26:10;2.65;;;1.20;;
26756;SDS011;23848;49.798;10.228;2023-09-18T11:28:38;4.15;;;1.08;;
26756;SDS011;23848;49.798;10.228;2023-09-18T11:31:09;2.40;;;0.73;;
26756;SDS011;23848;49.798;10.228;2023-09-18T11:33:38;1.95;;;0.90;;
26756;SDS011;23848;49.798;10.228;2023-09-18T11:36:07;1.52;;;0.60;;
26756;SDS011;23848;49.798;10.228;2023-09-18T11:38:52;1.83;;;0.75;;
26756;SDS011;23848;49.798;10.228;2023-09-18T11:41:25;3.15;;;1.20;;
26756;SDS011;23848;49.798;10.228;2023-09-18T11:46:37;1.42;;;0.55;;
26756;SDS011;23848;49.798;10.228;2023-09-18T11:49:06;3.42;;;0.93;;
26756;SDS011;23848;49.798;10.228;2023-09-18T11:51:35;2.10;;;0.90;;
26756;SDS011;23848;49.798;10.228;2023-09-18T11:54:05;1.25;;;0.70;;
26756;SDS011;23848;49.798;10.228;2023-09-18T11:56:35;2.25;;;0.85;;
26756;SDS011;23848;49.798;10.228;2023-09-18T11:59:03;1.80;;;0.80;;
26756;SDS011;23848;49.798;10.228;2023-09-18T12:01:33;1.67;;;0.70;;
26756;SDS011;23848;49.798;10.228;2023-09-18T12:04:02;2.40;;;0.85;;
26756;SDS011;23848;49.798;10.228;2023-09-18T12:06:36;2.30;;;0.60;;
26756;SDS011;23848;49.798;10.228;2023-09-18T12:09:06;2.00;;;0.80;;
26756;SDS011;23848;49.798;10.228;2023-09-18T12:11:35;1.95;;;1.00;;
26756;SDS011;23848;49.798;10.228;2023-09-18T12:14:04;2.28;;;0.60;;
26756;SDS011;23848;49.798;10.228;2023-09-18T12:16:37;2.75;;;0.60;;
26756;SDS011;23848;49.798;10.228;2023-09-18T12:19:06;1.25;;;0.60;;
26756;SDS011;23848;49.798;10.228;2023-09-18T12:21:39;1.40;;;0.70;;
26756;SDS011;23848;49.798;10.228;2023-09-18T12:24:14;1.90;;;0.57;;
26756;SDS011;23848;49.798;10.228;2023-09-18T12:26:42;2.85;;;0.80;;
26756;SDS011;23848;49.798;10.228;2023-09-18T12:29:10;1.85;;;0.70;;
26756;SDS011;23848;49.798;10.228;2023-09-18T12:31:39;1.80;;;0.70;;
26756;SDS011;23848;49.798;10.228;2023-09-18T12:34:13;4.13;;;1.00;;
26756;SDS011;23848;49.798;10.228;2023-09-18T12:36:42;2.17;;;0.90;;
26756;SDS011;23848;49.798;10.228;2023-09-18T12:39:11;2.65;;;0.70;;
26756;SDS011;23848;49.798;10.228;2023-09-18T12:41:44;3.08;;;0.80;;
26756;SDS011;23848;49.798;10.228;2023-09-18T12:44:12;2.17;;;0.85;;
26756;SDS011;23848;49.798;10.228;2023-09-18T12:46:43;2.08;;;0.70;;
26756;SDS011;23848;49.798;10.228;2023-09-18T12:49:16;1.88;;;0.88;;
26756;SDS011;23848;49.798;10.228;2023-09-18T12:51:53;2.17;;;0.68;;
26756;SDS011;23848;49.798;10.228;2023-09-18T12:54:36;2.45;;;0.57;;
26756;SDS011;23848;49.798;10.228;2023-09-18T12:57:06;1.75;;;0.70;;
26756;SDS011;23848;49.798;10.228;2023-09-18T12:59:35;1.55;;;0.60;;
26756;SDS011;23848;49.798;10.228;2023-09-18T13:02:05;2.00;;;0.70;;
26756;SDS011;23848;49.798;10.228;2023-09-18T13:04:34;2.20;;;0.70;;
26756;SDS011;23848;49.798;10.228;2023-09-18T13:09:35;1.33;;;0.68;;
26756;SDS011;23848;49.798;10.228;2023-09-18T13:12:04;1.23;;;0.50;;
26756;SDS011;23848;49.798;10.228;2023-09-18T13:17:17;1.27;;;0.80;;
26756;SDS011;23848;49.798;10.228;2023-09-18T13:19:45;1.67;;;0.50;;
26756;SDS011;23848;49.798;10.228;2023-09-18T13:22:21;1.77;;;0.65;;
26756;SDS011;23848;49.798;10.228;2023-09-18T13:24:54;1.20;;;0.55;;
26756;SDS011;23848;49.798;10.228;2023-09-18T13:27:24;1.20;;;0.55;;
26756;SDS011;23848;49.798;10.228;2023-09-18T13:29:52;1.63;;;0.40;;
26756;SDS011;23848;49.798;10.228;2023-09-18T13:32:22;1.25;;;0.57;;
26756;SDS011;23848;49.798;10.228;2023-09-18T13:34:51;1.67;;;0.50;;
26756;SDS011;23848;49.798;10.228;2023-09-18T13:37:19;1.38;;;0.50;;
26756;SDS011;23848;49.798;10.228;2023-09-18T13:39:48;0.75;;;0.43;;
26756;SDS011;23848;49.798;10.228;2023-09-18T13:42:16;1.95;;;0.55;;
26756;SDS011;23848;49.798;10.228;2023-09-18T13:44:44;1.02;;;0.45;;
26756;SDS011;23848;49.798;10.228;2023-09-18T13:47:13;0.88;;;0.40;;
26756;SDS011;23848;49.798;10.228;2023-09-18T13:49:43;0.47;;;0.20;;
26756;SDS011;23848;49.798;10.228;2023-09-18T13:52:12;1.20;;;0.47;;
26756;SDS011;23848;49.798;10.228;2023-09-18T13:54:42;1.95;;;0.70;;
26756;SDS011;23848;49.798;10.228;2023-09-18T13:57:17;1.40;;;0.50;;
26756;SDS011;23848;49.798;10.228;2023-09-18T13:59:46;0.65;;;0.35;;
26756;SDS011;23848;49.798;10.228;2023-09-18T14:02:15;1.10;;;0.60;;
26756;SDS011;23848;49.798;10.228;2023-09-18T14:04:45;1.15;;;0.40;;
26756;SDS011;23848;49.798;10.228;2023-09-18T14:07:13;0.90;;;0.40;;
26756;SDS011;23848;49.798;10.228;2023-09-18T14:09:42;1.17;;;0.38;;
26756;SDS011;23848;49.798;10.228;2023-09-18T14:12:13;0.98;;;0.40;;
26756;SDS011;23848;49.798;10.228;2023-09-18T14:14:41;1.02;;;0.40;;
26756;SDS011;23848;49.798;10.228;2023-09-18T14:17:10;0.98;;;0.45;;
26756;SDS011;23848;49.798;10.228;2023-09-18T14:19:44;1.33;;;0.50;;
26756;SDS011;23848;49.798;10.228;2023-09-18T14:22:13;0.90;;;0.40;;
26756;SDS011;23848;49.798;10.228;2023-09-18T14:24:41;1.30;;;0.40;;
26756;SDS011;23848;49.798;10.228;2023-09-18T14:27:09;1.25;;;0.35;;
26756;SDS011;23848;49.798;10.228;2023-09-18T14:29:38;2.05;;;0.60;;
26756;SDS011;23848;49.798;10.228;2023-09-18T14:32:07;1.65;;;0.50;;
26756;SDS011;23848;49.798;10.228;2023-09-18T14:34:35;2.17;;;0.55;;
26756;SDS011;23848;49.798;10.228;2023-09-18T14:37:05;0.73;;;0.35;;
26756;SDS011;23848;49.798;10.228;2023-09-18T14:39:33;0.88;;;0.50;;
26756;SDS011;23848;49.798;10.228;2023-09-18T14:42:02;0.77;;;0.38;;
26756;SDS011;23848;49.798;10.228;2023-09-18T14:44:31;0.93;;;0.40;;
26756;SDS011;23848;49.798;10.228;2023-09-18T14:46:59;0.85;;;0.30;;
26756;SDS011;23848;49.798;10.228;2023-09-18T14:49:28;2.67;;;0.80;;
26756;SDS011;23848;49.798;10.228;2023-09-18T14:51:56;2.13;;;0.50;;
26756;SDS011;23848;49.798;10.228;2023-09-18T14:54:26;0.98;;;0.47;;
26756;SDS011;23848;49.798;10.228;2023-09-18T14:56:54;0.95;;;0.40;;
26756;SDS011;23848;49.798;10.228;2023-09-18T14:59:22;1.58;;;0.30;;